createdAt,value
2024-04-02T00:26:43.925Z,75.96
2024-04-02T00:56:43.946Z,76.51
2024-04-02T01:26:43.948Z,76.83
2024-04-02T01:56:43.939Z,76.9
2024-04-02T02:26:43.943Z,76.74
2024-04-02T02:56:43.941Z,77.35
2024-04-02T03:26:43.942Z,77.71
2024-04-02T03:56:43.951Z,77.97
2024-04-02T04:26:43.951Z,77.75
2024-04-02T04:56:43.960Z,77.54
2024-04-02T05:26:43.969Z,77.16
2024-04-02T05:56:43.977Z,76.7
2024-04-02T06:26:43.979Z,76.13
2024-04-02T06:56:43.980Z,80.05
2024-04-02T07:26:43.982Z,79.94
2024-04-02T07:56:43.986Z,78.13
2024-04-02T08:26:43.993Z,77.23
2024-04-02T08:56:43.998Z,76.27
2024-04-02T09:26:43.999Z,77.21
2024-04-02T09:56:44.001Z,77.78
2024-04-02T10:26:44.006Z,72.79
2024-04-02T10:56:44.032Z,71.4
2024-04-02T11:26:44.031Z,68.52
2024-04-02T11:56:44.030Z,66.24
2024-04-02T12:26:44.080Z,63.41
2024-04-02T12:56:44.071Z,62.63
2024-04-02T13:26:44.074Z,58.5
2024-04-02T13:56:44.118Z,57.2
2024-04-02T14:26:44.073Z,57.59
2024-04-02T14:56:44.076Z,62.3
2024-04-02T15:26:44.109Z,60.43
2024-04-02T15:56:44.078Z,60.79
2024-04-02T16:26:44.081Z,60.64
2024-04-02T16:56:44.106Z,60.69
2024-04-02T17:26:44.151Z,61.74
2024-04-02T17:56:44.094Z,62.59
2024-04-02T18:26:44.098Z,63.11
2024-04-02T18:56:44.117Z,63.14
2024-04-02T19:26:44.127Z,63.44
2024-04-02T19:56:44.128Z,64
2024-04-02T20:26:44.144Z,64.44
2024-04-02T20:56:44.199Z,64.67
2024-04-02T21:26:44.157Z,64.81
2024-04-02T21:56:44.152Z,65.39
2024-04-02T22:26:44.200Z,65.56
2024-04-02T22:56:44.166Z,65.9
2024-04-02T23:26:44.175Z,66.44
2024-04-02T23:56:44.178Z,66.32
